Time;durP1;ratioP1;P1;durP2;ratioP2;P2;SDS_P1;SDS_P2;PMS_P1;PMS_P2;Temp;Humidity;BMP_temperature;BMP_pressure;BME280_temperature;BME280_humidity;BME280_pressure;Samples;Min_cycle;Max_cycle;Signal;HPM_P1;HPM_P2
2023/12/29 00:01:24;;;;;;;6.45;4.40;;;;;;;24.63;35.58;99552.75;4980323;28;20555;-43
2023/12/29 00:03:49;;;;;;;7.22;4.72;;;;;;;24.64;35.43;99565.28;4996814;28;20031;-43
2023/12/29 00:06:15;;;;;;;6.63;4.20;;;;;;;24.58;35.48;99568.00;4979561;28;20031;-44
2023/12/29 00:08:41;;;;;;;6.72;4.60;;;;;;;24.62;35.53;99567.78;4980682;28;20052;-44
2023/12/29 00:11:06;;;;;;;7.03;4.70;;;;;;;24.61;35.54;99567.03;4981455;28;20022;-43
2023/12/29 00:13:31;;;;;;;6.38;4.15;;;;;;;24.59;35.43;99575.03;4982858;28;20027;-44
2023/12/29 00:15:57;;;;;;;7.47;4.75;;;;;;;24.60;35.53;99567.53;4981065;28;20030;-43
2023/12/29 00:18:24;;;;;;;6.90;4.80;;;;;;;24.60;35.47;99573.03;4986610;28;20025;-44
2023/12/29 00:20:49;;;;;;;6.60;4.20;;;;;;;24.61;35.51;99574.56;4983083;28;20026;-44
2023/12/29 00:23:14;;;;;;;6.57;4.32;;;;;;;24.61;35.39;99572.56;4983495;28;20027;-43
2023/12/29 00:25:40;;;;;;;6.13;3.85;;;;;;;24.60;35.38;99576.56;4980622;28;20413;-44
2023/12/29 00:28:05;;;;;;;6.20;4.10;;;;;;;24.62;35.42;99579.59;4983487;28;20033;-43
2023/12/29 00:30:31;;;;;;;6.07;4.00;;;;;;;24.59;35.46;99588.09;4979943;28;20037;-43
2023/12/29 00:32:56;;;;;;;6.50;3.97;;;;;;;24.59;35.43;99582.56;4988019;28;20393;-43
2023/12/29 00:35:21;;;;;;;6.40;4.03;;;;;;;24.56;35.49;99580.81;4981025;28;20022;-43
2023/12/29 00:37:47;;;;;;;6.18;3.90;;;;;;;24.55;35.34;99579.31;4983324;28;20027;-44
2023/12/29 00:40:12;;;;;;;6.95;4.10;;;;;;;24.54;35.45;99577.78;4987270;28;20026;-43
2023/12/29 00:42:38;;;;;;;6.10;3.90;;;;;;;24.57;35.36;99588.59;4983235;28;20449;-44
2023/12/29 00:45:04;;;;;;;6.35;4.13;;;;;;;24.56;35.55;99583.56;4985895;28;20018;-43
2023/12/29 00:47:29;;;;;;;5.78;3.70;;;;;;;24.56;35.52;99587.09;4983753;28;20431;-44
2023/12/29 00:49:54;;;;;;;5.90;3.45;;;;;;;24.53;35.47;99592.84;4985552;28;20498;-43
2023/12/29 00:52:20;;;;;;;5.90;3.63;;;;;;;24.54;35.43;99577.78;4985464;28;20026;-43
2023/12/29 00:54:45;;;;;;;5.55;3.42;;;;;;;24.55;35.40;99580.06;4982199;28;20037;-45
2023/12/29 00:57:10;;;;;;;5.53;3.47;;;;;;;24.54;35.41;99572.28;4984826;28;20381;-46
2023/12/29 00:59:38;;;;;;;5.40;3.20;;;;;;;24.54;35.30;99572.28;4986366;28;20050;-43
2023/12/29 01:02:03;;;;;;;6.03;3.60;;;;;;;24.54;35.49;99572.28;4984775;28;20110;-43
2023/12/29 01:04:28;;;;;;;5.68;3.50;;;;;;;24.54;35.36;99566.75;4983387;28;20038;-44
2023/12/29 01:06:54;;;;;;;5.63;3.40;;;;;;;24.52;35.45;99560.97;4984030;28;20027;-43
2023/12/29 01:09:19;;;;;;;5.43;3.25;;;;;;;24.53;35.44;99562.47;4983019;28;20421;-43
2023/12/29 01:11:44;;;;;;;5.45;3.10;;;;;;;24.52;35.24;99563.72;4985891;28;20044;-43
2023/12/29 01:14:10;;;;;;;5.30;3.10;;;;;;;24.54;35.34;99566.75;4987721;28;20544;-43
2023/12/29 01:16:35;;;;;;;5.63;3.40;;;;;;;24.52;35.26;99558.22;4982768;28;20072;-43
2023/12/29 01:19:01;;;;;;;5.70;3.35;;;;;;;24.50;35.09;99568.97;4984986;28;20026;-43
2023/12/29 01:21:26;;;;;;;5.45;3.13;;;;;;;24.51;35.35;99562.97;4985218;28;20409;-43
2023/12/29 01:23:51;;;;;;;5.40;3.05;;;;;;;24.50;35.46;99560.69;4984105;28;20635;-44
2023/12/29 01:26:17;;;;;;;4.95;2.75;;;;;;;24.48;35.29;99557.66;4985134;28;20026;-43
2023/12/29 01:28:42;;;;;;;5.28;3.00;;;;;;;24.51;35.24;99562.97;4983282;28;20379;-43
2023/12/29 01:31:08;;;;;;;5.45;2.92;;;;;;;24.51;35.42;99559.44;4986702;28;20083;-43
2023/12/29 01:33:34;;;;;;;5.10;3.05;;;;;;;24.49;35.28;99561.94;4985673;28;20019;-43
2023/12/29 01:36:00;;;;;;;4.68;2.80;;;;;;;24.51;35.49;99570.50;4983953;28;20023;-42
2023/12/29 01:38:25;;;;;;;5.30;3.20;;;;;;;24.52;35.38;99570.00;4983596;28;20026;-43
2023/12/29 01:40:50;;;;;;;4.75;2.83;;;;;;;24.50;35.45;99571.72;4984781;28;20473;-43
2023/12/29 01:43:16;;;;;;;5.10;2.80;;;;;;;24.51;35.48;99568.47;4983388;28;20042;-43
2023/12/29 01:45:41;;;;;;;4.68;2.60;;;;;;;24.52;35.45;99574.75;4984730;28;20041;-43
2023/12/29 01:48:06;;;;;;;5.00;2.83;;;;;;;24.50;35.37;99566.97;4984969;28;20954;-43
2023/12/29 01:50:32;;;;;;;5.20;2.85;;;;;;;24.49;35.33;99567.47;4983530;28;20041;-43
2023/12/29 01:52:57;;;;;;;5.00;2.70;;;;;;;24.48;35.28;99563.19;4984046;28;20033;-43
2023/12/29 01:55:22;;;;;;;5.18;3.00;;;;;;;24.51;35.38;99559.44;4996254;28;20027;-43
2023/12/29 01:57:48;;;;;;;5.20;2.95;;;;;;;24.51;35.26;99564.97;4989505;28;20027;-43
2023/12/29 02:00:14;;;;;;;6.38;2.97;;;;;;;24.51;35.38;99567.72;4983004;28;20037;-43
2023/12/29 02:02:40;;;;;;;4.73;2.90;;;;;;;24.48;35.24;99563.19;4982712;28;20029;-43
2023/12/29 02:05:05;;;;;;;4.70;2.50;;;;;;;24.49;35.46;99545.41;4984152;28;20289;-43
2023/12/29 02:07:31;;;;;;;5.00;2.70;;;;;;;24.48;35.46;99549.41;5017562;28;20041;-46
2023/12/29 02:09:58;;;;;;;5.00;2.88;;;;;;;24.49;35.45;99539.88;4985594;28;20034;-47
2023/12/29 02:12:23;;;;;;;4.60;2.65;;;;;;;24.48;35.33;99546.63;4990404;28;20137;-45
2023/12/29 02:14:48;;;;;;;4.88;2.53;;;;;;;24.46;35.34;99551.88;4983245;28;20478;-43
2023/12/29 02:17:17;;;;;;;5.13;2.70;;;;;;;24.48;35.43;99541.13;4986730;28;20026;-43
2023/12/29 02:19:44;;;;;;;4.88;2.67;;;;;;;24.49;35.30;99539.88;5012709;28;20026;-44
2023/12/29 02:22:09;;;;;;;4.60;2.50;;;;;;;24.49;35.44;99528.84;4999364;28;20029;-43
2023/12/29 02:24:38;;;;;;;4.50;2.38;;;;;;;24.49;35.50;99520.56;4983535;28;20110;-44
2023/12/29 02:27:25;;;;;;;4.88;2.58;;;;;;;24.50;35.36;99522.06;4982613;28;20026;-42
2023/12/29 02:30:01;;;;;;;4.68;2.47;;;;;;;24.47;35.45;99517.53;5001657;28;20019;-43
2023/12/29 02:32:26;;;;;;;4.70;2.40;;;;;;;24.48;35.22;99519.81;4986456;28;20030;-43
2023/12/29 02:34:52;;;;;;;4.70;2.47;;;;;;;24.46;35.31;99516.03;4985228;28;20034;-43
2023/12/29 02:37:17;;;;;;;4.80;2.50;;;;;;;24.44;35.35;99513.00;5020733;28;20030;-43
2023/12/29 02:39:43;;;;;;;4.45;2.40;;;;;;;24.46;35.45;99516.03;5016728;28;20478;-43
2023/12/29 02:42:08;;;;;;;4.70;2.50;;;;;;;24.45;35.40;99520.78;4986159;28;20036;-43
2023/12/29 02:44:34;;;;;;;4.25;2.33;;;;;;;24.46;35.46;99516.78;4990553;28;20486;-45
2023/12/29 02:46:59;;;;;;;4.15;2.10;;;;;;;24.48;35.37;99516.28;4982710;28;20023;-43
2023/12/29 02:49:26;;;;;;;4.72;2.30;;;;;;;24.47;35.28;99512.78;4985861;28;20030;-43
2023/12/29 02:51:51;;;;;;;4.40;2.33;;;;;;;24.48;35.34;99502.50;4979306;28;20372;-45
2023/12/29 02:54:17;;;;;;;4.25;2.10;;;;;;;24.49;35.22;99495.72;4985594;28;20277;-43
2023/12/29 02:56:42;;;;;;;4.47;2.30;;;;;;;24.49;35.24;99502.00;4982412;28;20380;-43
2023/12/29 02:59:08;;;;;;;4.43;2.28;;;;;;;24.51;35.19;99493.22;4986424;28;20022;-44
2023/12/29 03:01:33;;;;;;;4.22;2.17;;;;;;;24.51;35.24;99496.00;4982227;28;20500;-43
2023/12/29 03:04:00;;;;;;;4.28;2.22;;;;;;;24.50;35.31;99491.72;4985491;28;20085;-44
2023/12/29 03:06:26;;;;;;;4.30;2.20;;;;;;;24.50;35.29;99492.47;4982122;28;20554;-43
2023/12/29 03:08:51;;;;;;;4.68;2.40;;;;;;;24.50;35.40;99494.47;4986288;28;20113;-43
2023/12/29 03:11:16;;;;;;;4.13;2.08;;;;;;;24.46;35.58;99496.72;4981955;28;20033;-43
2023/12/29 03:13:42;;;;;;;4.78;2.22;;;;;;;24.46;35.28;99499.47;4981434;28;20045;-44
2023/12/29 03:16:07;;;;;;;4.10;2.20;;;;;;;24.46;35.25;99496.72;4979295;28;20031;-44
2023/12/29 03:18:32;;;;;;;3.90;2.05;;;;;;;24.47;35.12;99495.47;4983562;28;20390;-43
2023/12/29 03:20:58;;;;;;;4.25;2.08;;;;;;;24.46;35.27;99493.94;4984862;28;20088;-46
2023/12/29 03:23:23;;;;;;;4.25;2.13;;;;;;;24.46;35.35;99499.47;4982510;28;20026;-46
2023/12/29 03:25:48;;;;;;;4.28;2.00;;;;;;;24.46;35.37;99497.47;4981716;28;20832;-44
2023/12/29 03:28:14;;;;;;;4.18;1.90;;;;;;;24.47;35.20;99493.47;4984368;28;20026;-43
2023/12/29 03:30:39;;;;;;;4.07;2.00;;;;;;;24.48;35.20;99496.97;4982832;28;20022;-43
2023/12/29 03:33:05;;;;;;;4.10;2.08;;;;;;;24.50;35.25;99491.72;4981978;28;20074;-43
2023/12/29 03:35:30;;;;;;;3.92;2.03;;;;;;;24.53;35.32;99499.00;4975501;28;20022;-43
2023/12/29 03:37:55;;;;;;;4.18;2.08;;;;;;;24.52;35.26;99503.03;5007478;28;20409;-43
2023/12/29 03:40:21;;;;;;;3.85;1.90;;;;;;;24.53;35.20;99499.78;4981073;28;20030;-43
2023/12/29 03:42:46;;;;;;;4.40;2.00;;;;;;;24.53;35.23;99499.00;4981975;28;20490;-43
2023/12/29 03:45:11;;;;;;;4.10;2.20;;;;;;;24.50;35.26;99495.22;4984912;28;20029;-43
2023/12/29 03:47:37;;;;;;;4.25;2.00;;;;;;;24.53;35.18;99501.78;4982847;28;20026;-44
2023/12/29 03:50:03;;;;;;;4.10;2.20;;;;;;;24.52;35.17;99505.78;4980049;28;20435;-43
2023/12/29 03:52:28;;;;;;;4.13;2.05;;;;;;;24.52;35.28;99503.78;4986939;28;20025;-43
2023/12/29 03:54:54;;;;;;;4.10;2.10;;;;;;;24.54;35.26;99500.53;4980019;28;20022;-43
2023/12/29 03:57:19;;;;;;;4.07;2.03;;;;;;;24.54;35.21;99487.50;4980658;28;20072;-45
2023/12/29 03:59:44;;;;;;;4.15;1.90;;;;;;;24.55;35.23;99485.47;4981337;28;20046;-44
2023/12/29 04:02:10;;;;;;;3.60;1.90;;;;;;;24.57;35.16;99500.31;4980398;28;20085;-43
2023/12/29 04:04:38;;;;;;;4.35;2.17;;;;;;;24.57;35.23;99494.78;4981489;28;20022;-43
2023/12/29 04:07:04;;;;;;;4.03;2.00;;;;;;;24.64;35.18;99485.25;4979665;28;20027;-44
2023/12/29 04:09:30;;;;;;;3.63;1.80;;;;;;;24.61;35.19;99481.47;4978200;28;20026;-44
2023/12/29 04:11:55;;;;;;;3.60;1.80;;;;;;;24.63;34.96;99483.75;4981975;28;20101;-43
2023/12/29 04:14:21;;;;;;;4.00;2.03;;;;;;;24.61;35.01;99484.25;4991129;28;20022;-43
2023/12/29 04:16:46;;;;;;;3.72;1.83;;;;;;;24.64;35.00;99493.53;4984823;28;20010;-43
2023/12/29 04:19:11;;;;;;;3.70;1.80;;;;;;;24.64;35.02;99488.03;4984989;28;20037;-44
2023/12/29 04:21:37;;;;;;;3.70;1.83;;;;;;;24.66;35.08;99482.75;4981011;28;20114;-43
2023/12/29 04:24:02;;;;;;;4.38;1.80;;;;;;;24.66;34.98;99474.47;4984118;28;20055;-43
2023/12/29 04:26:28;;;;;;;3.47;1.73;;;;;;;24.66;35.21;99480.00;4984723;28;20033;-43
2023/12/29 04:28:53;;;;;;;4.28;1.90;;;;;;;24.67;35.05;99476.00;4986240;28;20011;-43
2023/12/29 04:31:18;;;;;;;4.00;2.03;;;;;;;24.63;35.12;99475.47;4986193;28;20038;-43
2023/12/29 04:33:44;;;;;;;4.10;1.80;;;;;;;24.65;34.99;99476.50;4987876;28;20026;-46
2023/12/29 04:36:09;;;;;;;4.00;1.90;;;;;;;24.65;35.12;99476.50;4979935;28;20388;-42
2023/12/29 04:38:34;;;;;;;3.83;1.80;;;;;;;24.66;34.99;99466.97;4987013;28;20026;-44
2023/12/29 04:41:00;;;;;;;4.03;1.98;;;;;;;24.66;34.99;99468.97;4984056;28;20032;-43
2023/12/29 04:43:25;;;;;;;3.92;1.83;;;;;;;24.65;35.19;99468.22;4986437;28;20089;-43
2023/12/29 04:45:50;;;;;;;3.25;1.70;;;;;;;24.66;35.06;99483.53;4983407;28;20097;-43
2023/12/29 04:48:16;;;;;;;3.38;1.70;;;;;;;24.68;35.17;99488.53;4983792;28;20036;-43
2023/12/29 04:50:41;;;;;;;3.55;1.75;;;;;;;24.67;35.42;99481.50;4982827;28;20023;-44
2023/12/29 04:53:06;;;;;;;3.53;1.70;;;;;;;24.67;35.06;99490.56;4986412;28;20037;-43
2023/12/29 04:55:32;;;;;;;3.83;1.70;;;;;;;24.68;35.23;99485.78;4983472;28;20022;-43
2023/12/29 04:57:57;;;;;;;3.55;1.70;;;;;;;24.70;35.12;99491.56;4984675;28;20022;-43
2023/12/29 05:00:22;;;;;;;3.50;1.60;;;;;;;24.70;35.09;99502.59;4988386;28;20037;-44
2023/12/29 05:02:48;;;;;;;3.50;1.65;;;;;;;24.73;35.14;99507.13;4984443;28;20927;-43
2023/12/29 05:05:13;;;;;;;3.60;1.70;;;;;;;24.72;35.07;99505.63;4985013;28;20031;-45
2023/12/29 05:07:38;;;;;;;3.63;1.77;;;;;;;24.70;35.03;99497.09;4983632;28;20038;-43
2023/12/29 05:10:04;;;;;;;3.60;1.70;;;;;;;24.71;35.11;99501.34;5012662;28;20023;-45
2023/12/29 05:12:30;;;;;;;3.75;1.85;;;;;;;24.68;35.20;99494.81;4984103;28;20128;-44
2023/12/29 05:14:55;;;;;;;3.58;1.50;;;;;;;24.71;35.14;99495.84;4984014;28;20036;-44
2023/12/29 05:17:20;;;;;;;3.13;1.50;;;;;;;24.71;35.00;99495.84;4982915;28;20081;-44
2023/12/29 05:19:46;;;;;;;3.88;1.70;;;;;;;24.69;35.05;99490.81;4981417;28;20022;-45
2023/12/29 05:22:15;;;;;;;3.47;1.70;;;;;;;24.68;35.18;99492.06;4983977;28;20727;-46
2023/12/29 05:24:41;;;;;;;4.20;1.60;;;;;;;24.72;35.13;99489.81;4986661;28;20022;-44
2023/12/29 05:27:07;;;;;;;3.20;1.70;;;;;;;24.70;35.15;99486.03;4981988;28;20023;-44
2023/12/29 05:29:32;;;;;;;4.07;1.70;;;;;;;24.71;35.00;99482.03;4986259;28;20951;-51
2023/12/29 05:31:57;;;;;;;3.60;1.70;;;;;;;24.72;35.09;99472.50;4984856;28;20026;-44
2023/12/29 05:34:23;;;;;;;3.47;1.70;;;;;;;24.73;34.99;99485.06;4984711;28;20032;-44
2023/12/29 05:36:48;;;;;;;3.33;1.60;;;;;;;24.72;35.22;99489.06;4979482;28;20018;-44
2023/12/29 05:39:14;;;;;;;3.30;1.67;;;;;;;24.72;34.97;99481.53;4985722;28;20033;-44
2023/12/29 05:41:39;;;;;;;3.00;1.58;;;;;;;24.72;35.20;99481.53;4982642;28;20027;-46
2023/12/29 05:44:04;;;;;;;4.03;1.70;;;;;;;24.74;35.09;99486.56;4986964;28;20030;-44
2023/12/29 05:46:30;;;;;;;3.45;1.67;;;;;;;24.75;35.28;99488.09;4984734;28;20072;-45
2023/12/29 05:48:55;;;;;;;3.70;1.65;;;;;;;24.72;35.53;99489.06;4983020;28;20026;-45
2023/12/29 05:51:21;;;;;;;3.60;1.67;;;;;;;24.73;35.24;99493.34;4982956;28;20581;-44
2023/12/29 05:53:47;;;;;;;3.53;1.83;;;;;;;24.75;35.22;99487.31;4984439;28;20018;-44
2023/12/29 05:56:12;;;;;;;3.85;1.88;;;;;;;24.73;35.33;99485.81;4982630;28;20030;-44
2023/12/29 05:58:38;;;;;;;3.92;1.60;;;;;;;24.77;35.15;99490.34;4982800;28;20058;-45
2023/12/29 06:01:03;;;;;;;4.05;1.88;;;;;;;24.73;35.35;99488.56;4980606;28;20363;-45
2023/12/29 06:03:29;;;;;;;3.35;1.55;;;;;;;24.75;35.23;99482.56;4986984;28;20072;-44
2023/12/29 06:05:54;;;;;;;4.75;1.70;;;;;;;24.74;35.35;99489.34;4988092;28;20081;-45
2023/12/29 06:08:19;;;;;;;3.45;1.63;;;;;;;24.75;35.30;99481.81;4985545;28;20421;-44
2023/12/29 06:10:45;;;;;;;3.88;1.70;;;;;;;24.76;35.39;99475.78;4986469;28;20023;-44
2023/12/29 06:13:10;;;;;;;4.90;1.85;;;;;;;24.72;35.58;99472.50;4981766;28;20033;-45
2023/12/29 06:15:36;;;;;;;6.32;1.80;;;;;;;24.80;35.58;99479.06;4978423;28;20030;-42
2023/12/29 06:18:02;;;;;;;5.50;1.92;;;;;;;24.88;35.84;99473.81;4983617;28;20030;-42
2023/12/29 06:20:27;;;;;;;3.80;1.52;;;;;;;24.91;35.86;99470.81;4980426;28;20030;-43
2023/12/29 06:22:52;;;;;;;5.80;1.63;;;;;;;24.97;35.76;99474.41;4980648;28;20038;-44
2023/12/29 06:25:18;;;;;;;5.25;1.70;;;;;;;24.98;35.88;99470.34;4980746;28;20029;-45
2023/12/29 06:27:43;;;;;;;3.63;1.70;;;;;;;24.99;36.37;99477.38;4979542;28;20027;-44
2023/12/29 06:30:10;;;;;;;4.20;1.85;;;;;;;25.04;36.09;99482.16;4981136;28;20474;-43
2023/12/29 06:32:36;;;;;;;4.28;1.60;;;;;;;25.05;36.05;99488.44;4984555;28;20105;-39
2023/12/29 06:35:01;;;;;;;4.70;1.80;;;;;;;25.08;36.04;99479.19;4983512;28;20034;-42
2023/12/29 06:37:27;;;;;;;3.78;1.70;;;;;;;25.13;36.21;99477.69;4982350;28;20114;-41
2023/12/29 06:39:52;;;;;;;3.65;1.50;;;;;;;25.10;36.26;99481.44;4985755;28;20040;-41
2023/12/29 06:42:17;;;;;;;4.25;1.88;;;;;;;25.11;36.20;99489.22;4982757;28;20030;-41
2023/12/29 06:44:43;;;;;;;3.67;1.70;;;;;;;25.10;35.96;99489.72;4981020;28;20026;-40
2023/12/29 06:47:09;;;;;;;4.07;1.80;;;;;;;25.09;36.22;99482.69;4979971;28;20023;-40
2023/12/29 06:49:34;;;;;;;5.68;1.70;;;;;;;25.06;36.23;99476.16;4980524;28;20022;-42
2023/12/29 06:52:00;;;;;;;4.47;1.70;;;;;;;25.07;36.40;99469.38;4984256;28;20908;-43
2023/12/29 06:54:25;;;;;;;4.45;2.00;;;;;;;25.05;35.96;99478.16;4982340;28;20037;-39
2023/12/29 06:56:50;;;;;;;4.45;1.83;;;;;;;25.07;36.28;99472.16;4983297;28;20025;-41
2023/12/29 06:59:16;;;;;;;3.92;1.90;;;;;;;25.11;36.06;99480.19;4983104;28;20029;-44
2023/12/29 07:01:41;;;;;;;5.65;2.00;;;;;;;25.08;35.81;99481.94;4980641;28;20332;-41
2023/12/29 07:04:09;;;;;;;5.32;2.30;;;;;;;25.08;36.03;99492.97;4980909;28;20038;-44
2023/12/29 07:06:35;;;;;;;5.00;2.30;;;;;;;25.11;35.81;99485.72;4980385;28;20031;-41
2023/12/29 07:09:01;;;;;;;6.25;2.25;;;;;;;25.12;35.89;99487.22;4979815;28;20026;-42
2023/12/29 07:11:26;;;;;;;5.05;2.45;;;;;;;25.13;35.86;99486.72;4977979;28;20033;-42
2023/12/29 07:13:51;;;;;;;4.40;2.45;;;;;;;25.14;35.89;99487.47;4980622;28;20043;-43
2023/12/29 07:16:19;;;;;;;5.20;2.20;;;;;;;25.12;35.67;99487.97;4985786;28;20033;-40
2023/12/29 07:18:45;;;;;;;4.60;2.38;;;;;;;25.12;35.55;99484.47;4984138;28;20085;-44
2023/12/29 07:21:12;;;;;;;4.93;2.30;;;;;;;25.08;35.66;99495.75;4980296;28;20516;-44
2023/12/29 07:23:37;;;;;;;5.15;2.25;;;;;;;25.12;35.52;99493.50;4984882;28;20448;-44
2023/12/29 07:26:02;;;;;;;5.70;2.33;;;;;;;25.13;35.37;99495.00;4980891;28;20118;-45
2023/12/29 07:28:28;;;;;;;4.70;2.25;;;;;;;25.13;35.63;99494.25;4982981;28;20031;-45
2023/12/29 07:30:53;;;;;;;5.57;2.40;;;;;;;25.15;35.34;99486.22;4981776;28;20470;-44
2023/12/29 07:33:19;;;;;;;4.95;2.33;;;;;;;25.16;35.41;99488.50;4981823;28;20033;-44
2023/12/29 07:35:44;;;;;;;4.90;2.35;;;;;;;25.15;35.35;99495.28;4978259;28;20058;-49
2023/12/29 07:38:09;;;;;;;4.45;2.30;;;;;;;25.15;35.29;99497.28;4979096;28;20030;-48
2023/12/29 07:40:35;;;;;;;4.13;2.15;;;;;;;25.09;35.31;99483.44;4984003;28;20034;-45
2023/12/29 07:43:00;;;;;;;5.55;2.22;;;;;;;25.09;35.35;99488.22;4980278;28;20026;-41
2023/12/29 07:45:25;;;;;;;4.78;2.22;;;;;;;25.08;35.35;99476.41;4987271;28;20072;-46
2023/12/29 07:47:51;;;;;;;4.63;2.10;;;;;;;25.10;35.20;99484.97;4983553;28;20104;-46
2023/12/29 07:50:16;;;;;;;4.68;2.25;;;;;;;25.01;34.92;99480.41;4987749;28;20035;-49
2023/12/29 07:52:44;;;;;;;5.22;2.30;;;;;;;24.97;35.18;99476.41;4983880;28;20023;-46
2023/12/29 07:55:10;;;;;;;4.53;2.22;;;;;;;24.97;35.38;99476.41;4985735;28;20533;-46
2023/12/29 07:57:35;;;;;;;4.25;2.08;;;;;;;25.01;35.21;99482.41;4981306;28;20077;-47
2023/12/29 08:00:01;;;;;;;9.55;2.42;;;;;;;25.12;35.39;99481.69;4988094;28;20560;-44
2023/12/29 08:02:27;;;;;;;11.90;2.75;;;;;;;25.11;35.26;99480.94;4987058;28;20035;-47
2023/12/29 08:04:54;;;;;;;7.82;2.58;;;;;;;24.96;35.33;99475.63;4989911;28;20018;-46
2023/12/29 08:07:19;;;;;;;5.72;2.08;;;;;;;24.94;35.19;99483.66;4985429;28;20030;-47
2023/12/29 08:09:44;;;;;;;5.45;2.20;;;;;;;24.97;35.13;99488.19;4987471;28;20397;-47
2023/12/29 08:12:10;;;;;;;6.00;2.35;;;;;;;24.86;35.22;99492.88;4989418;28;20393;-48
2023/12/29 08:14:35;;;;;;;5.05;2.70;;;;;;;24.72;35.25;99500.09;4986519;28;20026;-48
2023/12/29 08:17:01;;;;;;;5.82;2.65;;;;;;;24.67;35.26;99498.81;4985451;28;20028;-46
2023/12/29 08:19:27;;;;;;;4.68;2.17;;;;;;;24.68;35.24;99496.81;4987823;28;20037;-46
2023/12/29 08:21:52;;;;;;;4.70;2.50;;;;;;;24.64;35.22;99510.09;4984048;28;20022;-47
2023/12/29 08:24:19;;;;;;;4.22;2.25;;;;;;;24.65;35.06;99495.06;4988659;28;20551;-47
2023/12/29 08:26:45;;;;;;;4.70;2.30;;;;;;;24.67;35.28;99503.59;4989620;28;20030;-46
2023/12/29 08:29:11;;;;;;;4.35;2.63;;;;;;;24.67;34.90;99504.34;4990285;28;20474;-46
2023/12/29 08:31:36;;;;;;;4.50;2.10;;;;;;;24.66;35.10;99513.88;4989364;28;20063;-47
2023/12/29 08:34:01;;;;;;;4.47;2.38;;;;;;;24.66;35.02;99518.63;4986660;28;20517;-48
2023/12/29 08:36:27;;;;;;;4.68;2.47;;;;;;;24.55;34.97;99519.34;4986474;28;20093;-47
2023/12/29 08:38:52;;;;;;;4.50;2.33;;;;;;;24.50;35.00;99517.31;4986383;28;20034;-47
2023/12/29 08:41:18;;;;;;;4.78;2.50;;;;;;;24.43;34.98;99508.72;4984597;28;20030;-48
2023/12/29 08:43:44;;;;;;;5.40;2.63;;;;;;;24.39;34.99;99517.97;4982710;28;20029;-46
2023/12/29 08:46:09;;;;;;;4.85;2.50;;;;;;;24.32;35.00;99512.94;4988533;28;20034;-46
2023/12/29 08:48:35;;;;;;;4.95;2.60;;;;;;;24.31;35.02;99514.19;4983101;28;20516;-50
2023/12/29 08:51:01;;;;;;;5.20;2.72;;;;;;;24.31;35.02;99511.44;4988573;28;20080;-50
2023/12/29 08:53:26;;;;;;;6.03;2.38;;;;;;;24.32;34.82;99520.47;4985994;28;20031;-50
2023/12/29 08:55:51;;;;;;;9.23;2.83;;;;;;;24.35;35.44;99520.25;4987463;28;20088;-44
2023/12/29 08:58:17;;;;;;;13.50;2.70;;;;;;;24.39;35.26;99522.75;4984136;28;20497;-44
2023/12/29 09:00:42;;;;;;;18.75;3.03;;;;;;;24.33;35.20;99522.72;4987049;28;20018;-44
2023/12/29 09:03:07;;;;;;;11.38;2.80;;;;;;;24.29;35.36;99524.97;4985529;28;20409;-44
2023/12/29 09:05:33;;;;;;;8.90;3.10;;;;;;;24.29;35.34;99521.44;4982847;28;20069;-43
2023/12/29 09:07:58;;;;;;;6.60;2.50;;;;;;;24.30;35.35;99532.00;4983116;28;20014;-44
2023/12/29 09:10:24;;;;;;;5.88;2.70;;;;;;;24.31;35.19;99532.75;4981855;28;20030;-46
2023/12/29 09:12:49;;;;;;;5.82;2.70;;;;;;;24.29;35.22;99530.47;4986322;28;20026;-46
2023/12/29 09:15:15;;;;;;;5.07;2.50;;;;;;;24.27;35.15;99535.72;5012586;28;20078;-44
2023/12/29 09:17:40;;;;;;;9.98;2.72;;;;;;;24.26;35.52;99542.47;4986451;28;20026;-54
2023/12/29 09:20:07;;;;;;;8.00;2.63;;;;;;;24.26;35.43;99542.47;4981255;28;20026;-49
2023/12/29 09:22:33;;;;;;;;;;;;;;;24.29;35.40;99540.75;4985166;28;20085;-47
2023/12/29 09:24:58;;;;;;;6.63;2.50;;;;;;;24.26;35.31;99541.72;5013188;28;20001;-44
2023/12/29 09:27:23;;;;;;;4.80;2.38;;;;;;;24.30;35.58;99543.03;4985326;28;20093;-43
2023/12/29 09:29:49;;;;;;;5.68;2.45;;;;;;;24.37;35.50;99545.34;4985617;28;20032;-45
2023/12/29 09:32:15;;;;;;;5.28;2.53;;;;;;;24.39;35.24;99533.78;4984967;28;20118;-48
2023/12/29 09:34:40;;;;;;;4.85;2.30;;;;;;;24.40;35.41;99546.31;4982244;28;20030;-52
2023/12/29 09:37:06;;;;;;;4.32;2.20;;;;;;;24.44;35.32;99549.63;4982116;28;20021;-46
2023/12/29 09:39:32;;;;;;;4.60;2.20;;;;;;;24.43;35.32;99545.34;4983044;28;20042;-46
2023/12/29 09:41:58;;;;;;;4.70;2.30;;;;;;;24.35;35.29;99545.06;4982153;28;20035;-44
2023/12/29 09:44:23;;;;;;;5.03;2.55;;;;;;;24.31;35.29;99549.28;4982050;28;20030;-42
2023/12/29 09:46:49;;;;;;;4.47;2.30;;;;;;;24.28;35.28;99548.25;4981843;28;20367;-42
2023/12/29 09:49:15;;;;;;;4.75;2.50;;;;;;;24.28;35.32;99545.50;4984887;28;20038;-43
2023/12/29 09:51:40;;;;;;;4.70;2.53;;;;;;;24.32;35.15;99539.78;4980497;28;20076;-41
2023/12/29 09:54:05;;;;;;;5.18;2.75;;;;;;;24.31;35.22;99539.00;4981028;28;20034;-43
2023/12/29 09:56:31;;;;;;;4.90;2.40;;;;;;;24.34;35.08;99540.78;4993254;28;20035;-43
2023/12/29 09:58:56;;;;;;;5.13;2.30;;;;;;;24.35;35.23;99536.03;4983247;28;20351;-44
2023/12/29 10:01:22;;;;;;;4.20;2.20;;;;;;;24.34;35.23;99532.53;4979995;28;20026;-41
2023/12/29 10:03:48;;;;;;;4.40;2.30;;;;;;;24.40;35.30;99524.25;4982427;28;20025;-46
2023/12/29 10:06:14;;;;;;;5.30;2.50;;;;;;;24.50;35.08;99522.81;5013687;28;20035;-50
2023/12/29 10:08:44;;;;;;;4.93;2.40;;;;;;;24.42;35.12;99518.25;4996596;28;20475;-49
2023/12/29 10:11:10;;;;;;;5.63;2.33;;;;;;;24.43;34.95;99522.53;5013726;28;20394;-48
2023/12/29 10:13:36;;;;;;;4.50;2.40;;;;;;;24.42;34.92;99512.72;4984779;28;20030;-44
2023/12/29 10:16:08;;;;;;;4.57;2.50;;;;;;;24.50;34.91;99511.78;4998348;28;20026;-44
2023/12/29 10:18:46;;;;;;;4.57;2.22;;;;;;;24.48;34.94;99505.25;5012199;28;20029;-44
2023/12/29 10:21:23;;;;;;;4.97;2.17;;;;;;;24.55;34.90;99508.31;4982830;28;20041;-44
2023/12/29 10:24:03;;;;;;;4.50;2.30;;;;;;;24.59;34.71;99508.06;4983702;28;20022;-45
2023/12/29 10:26:28;;;;;;;4.30;2.13;;;;;;;24.62;34.81;99505.06;4996936;28;20022;-45
2023/12/29 10:28:54;;;;;;;5.15;2.30;;;;;;;24.65;34.56;99497.81;5013895;28;20373;-46
2023/12/29 10:31:19;;;;;;;5.35;2.20;;;;;;;24.63;34.61;99503.06;4998009;28;20039;-45
2023/12/29 10:33:50;;;;;;;5.43;2.40;;;;;;;24.69;34.65;99490.81;5014133;28;20042;-45
2023/12/29 10:36:15;;;;;;;6.90;2.25;;;;;;;24.69;34.67;99498.34;4984124;28;20045;-47
2023/12/29 10:38:41;;;;;;;4.82;2.60;;;;;;;24.68;34.68;99491.31;4979779;28;20713;-45
2023/12/29 10:41:17;;;;;;;5.75;3.70;;;;;;;24.68;34.80;99486.53;4982915;28;20026;-45
2023/12/29 10:43:44;;;;;;;5.78;2.83;;;;;;;24.71;34.70;99477.28;4981397;28;20532;-44
2023/12/29 10:46:10;;;;;;;5.60;2.80;;;;;;;24.73;34.75;99474.78;4983062;28;20035;-44
2023/12/29 10:48:36;;;;;;;4.90;2.55;;;;;;;24.70;34.80;99473.00;4981636;28;20030;-45
2023/12/29 10:51:04;;;;;;;4.95;2.70;;;;;;;24.68;34.94;99471.97;4987582;28;20029;-46
2023/12/29 10:53:34;;;;;;;4.60;2.40;;;;;;;24.71;34.79;99457.97;4980448;28;20393;-46
2023/12/29 10:56:00;;;;;;;5.30;2.63;;;;;;;24.73;34.73;99457.47;4986449;28;20038;-46
2023/12/29 10:58:29;;;;;;;6.05;2.60;;;;;;;24.73;34.66;99449.19;4981575;28;20030;-47
2023/12/29 11:00:58;;;;;;;6.40;2.50;;;;;;;24.74;34.84;99445.16;4635907;28;10000495;-47
2023/12/29 11:03:26;;;;;;;5.65;2.40;;;;;;;24.73;34.89;99435.38;5008819;28;20114;-47
2023/12/29 11:06:00;;;;;;;5.35;2.50;;;;;;;24.73;34.87;99436.13;4979296;28;20109;-45
2023/12/29 11:08:25;;;;;;;7.82;2.70;;;;;;;24.72;34.90;99436.63;4980159;28;20105;-45
2023/12/29 11:10:50;;;;;;;4.70;2.40;;;;;;;24.75;34.75;99443.91;4975729;28;20581;-46
2023/12/29 11:13:16;;;;;;;5.35;2.63;;;;;;;24.73;34.86;99435.38;4977768;28;20105;-45
2023/12/29 11:15:44;;;;;;;8.18;5.53;;;;;;;24.73;34.90;99440.91;4976965;28;20030;-45
2023/12/29 11:18:13;;;;;;;10.18;8.00;;;;;;;24.74;34.84;99431.38;4975475;28;20370;-46
2023/12/29 11:20:38;;;;;;;12.57;10.50;;;;;;;24.74;34.75;99431.38;5005311;28;20029;-45
2023/12/29 11:23:07;;;;;;;17.83;14.95;;;;;;;24.77;34.86;99429.63;4981426;28;20069;-47
2023/12/29 11:25:32;;;;;;;19.58;15.95;;;;;;;24.81;34.72;99436.38;4980997;28;20026;-45
2023/12/29 11:27:58;;;;;;;19.88;17.05;;;;;;;24.77;34.76;99435.91;4976469;28;20164;-47